< < Back
Terminal Aerodrome Forecast


Current Version              Previous Versions:   1  2  3  4  5  6  7  8  9  

Terminal Aerodrome Forecast

692
FTUS44 KHUN 062320
TAFHSV
TAF
KHSV 062320Z 0700/0724 VRB04KT P6SM BKN120
     FM070600 VRB03KT P6SM SKC
     FM071500 30005KT P6SM SCT250=

Latest METAR

463
SAUS80 KWBC 070400 RRA
MTRHSV
METAR KHSV 070353Z 00000KT 10SM FEW120 FEW180 03/M04 A3029 RMK AO2
SLP259 T00281044


USA.gov is the U.S. government's official web portal to all federal, state and local government web resources and services.